sensor_id;sensor_type;location;lat;lon;timestamp;P1;durP1;ratioP1;P2;durP2;ratioP2
30378;SDS011;17168;49.164;9.060;2023-04-16T00:00:29;11.05;;;6.13;;
30378;SDS011;17168;49.164;9.060;2023-04-16T00:03:01;10.20;;;5.70;;
30378;SDS011;17168;49.164;9.060;2023-04-16T00:05:34;9.63;;;5.43;;
30378;SDS011;17168;49.164;9.060;2023-04-16T00:08:06;10.20;;;5.45;;
30378;SDS011;17168;49.164;9.060;2023-04-16T00:10:41;9.57;;;6.20;;
30378;SDS011;17168;49.164;9.060;2023-04-16T00:13:16;10.07;;;4.95;;
30378;SDS011;17168;49.164;9.060;2023-04-16T00:15:48;9.65;;;5.45;;
30378;SDS011;17168;49.164;9.060;2023-04-16T00:18:20;9.75;;;5.15;;
30378;SDS011;17168;49.164;9.060;2023-04-16T00:20:52;10.20;;;5.45;;
30378;SDS011;17168;49.164;9.060;2023-04-16T00:23:25;8.52;;;4.63;;
30378;SDS011;17168;49.164;9.060;2023-04-16T00:25:57;8.60;;;4.75;;
30378;SDS011;17168;49.164;9.060;2023-04-16T00:28:33;8.77;;;5.05;;
30378;SDS011;17168;49.164;9.060;2023-04-16T00:31:05;7.68;;;4.30;;
30378;SDS011;17168;49.164;9.060;2023-04-16T00:33:37;11.25;;;5.72;;
30378;SDS011;17168;49.164;9.060;2023-04-16T00:36:09;10.85;;;5.95;;
30378;SDS011;17168;49.164;9.060;2023-04-16T00:38:41;9.60;;;5.38;;
30378;SDS011;17168;49.164;9.060;2023-04-16T00:41:13;9.70;;;5.63;;
30378;SDS011;17168;49.164;9.060;2023-04-16T00:43:48;8.30;;;4.50;;
30378;SDS011;17168;49.164;9.060;2023-04-16T00:46:21;8.25;;;4.80;;
30378;SDS011;17168;49.164;9.060;2023-04-16T00:48:54;9.05;;;4.50;;
30378;SDS011;17168;49.164;9.060;2023-04-16T00:51:27;10.20;;;5.45;;
30378;SDS011;17168;49.164;9.060;2023-04-16T00:54:01;8.55;;;5.00;;
30378;SDS011;17168;49.164;9.060;2023-04-16T00:56:34;11.05;;;5.32;;
30378;SDS011;17168;49.164;9.060;2023-04-16T00:59:09;8.32;;;4.57;;
30378;SDS011;17168;49.164;9.060;2023-04-16T01:01:42;8.10;;;4.80;;
30378;SDS011;17168;49.164;9.060;2023-04-16T01:04:14;7.82;;;5.10;;
30378;SDS011;17168;49.164;9.060;2023-04-16T01:06:47;9.98;;;4.75;;
30378;SDS011;17168;49.164;9.060;2023-04-16T01:09:19;8.57;;;4.75;;
30378;SDS011;17168;49.164;9.060;2023-04-16T01:11:51;9.10;;;4.85;;
30378;SDS011;17168;49.164;9.060;2023-04-16T01:14:26;9.57;;;4.93;;
30378;SDS011;17168;49.164;9.060;2023-04-16T01:16:58;9.93;;;5.28;;
30378;SDS011;17168;49.164;9.060;2023-04-16T01:19:30;8.70;;;4.28;;
30378;SDS011;17168;49.164;9.060;2023-04-16T01:22:05;10.00;;;5.03;;
30378;SDS011;17168;49.164;9.060;2023-04-16T01:24:37;9.30;;;4.93;;
30378;SDS011;17168;49.164;9.060;2023-04-16T01:27:10;10.02;;;4.93;;
30378;SDS011;17168;49.164;9.060;2023-04-16T01:29:42;9.13;;;4.22;;
30378;SDS011;17168;49.164;9.060;2023-04-16T01:32:14;8.95;;;4.93;;
30378;SDS011;17168;49.164;9.060;2023-04-16T01:34:46;9.30;;;4.93;;
30378;SDS011;17168;49.164;9.060;2023-04-16T01:37:20;9.52;;;5.43;;
30378;SDS011;17168;49.164;9.060;2023-04-16T01:39:53;7.47;;;4.00;;
30378;SDS011;17168;49.164;9.060;2023-04-16T01:42:25;10.05;;;5.57;;
30378;SDS011;17168;49.164;9.060;2023-04-16T01:44:58;9.27;;;5.05;;
30378;SDS011;17168;49.164;9.060;2023-04-16T01:47:30;9.20;;;5.38;;
30378;SDS011;17168;49.164;9.060;2023-04-16T01:50:02;9.15;;;5.10;;
30378;SDS011;17168;49.164;9.060;2023-04-16T01:52:38;8.43;;;4.63;;
30378;SDS011;17168;49.164;9.060;2023-04-16T01:55:10;8.30;;;4.50;;
30378;SDS011;17168;49.164;9.060;2023-04-16T01:57:42;10.20;;;5.05;;
30378;SDS011;17168;49.164;9.060;2023-04-16T02:00:14;9.15;;;4.43;;
30378;SDS011;17168;49.164;9.060;2023-04-16T02:02:47;8.30;;;5.05;;
30378;SDS011;17168;49.164;9.060;2023-04-16T02:05:20;8.40;;;5.18;;
30378;SDS011;17168;49.164;9.060;2023-04-16T02:07:54;7.85;;;4.43;;
30378;SDS011;17168;49.164;9.060;2023-04-16T02:10:26;10.43;;;5.25;;
30378;SDS011;17168;49.164;9.060;2023-04-16T02:12:58;10.35;;;5.03;;
30378;SDS011;17168;49.164;9.060;2023-04-16T02:15:31;10.20;;;5.03;;
30378;SDS011;17168;49.164;9.060;2023-04-16T02:18:03;10.23;;;5.97;;
30378;SDS011;17168;49.164;9.060;2023-04-16T02:20:36;10.93;;;5.43;;
30378;SDS011;17168;49.164;9.060;2023-04-16T02:23:13;10.18;;;5.63;;
30378;SDS011;17168;49.164;9.060;2023-04-16T02:25:46;10.18;;;6.30;;
30378;SDS011;17168;49.164;9.060;2023-04-16T02:28:18;9.90;;;5.35;;
30378;SDS011;17168;49.164;9.060;2023-04-16T02:30:50;11.68;;;6.93;;
30378;SDS011;17168;49.164;9.060;2023-04-16T02:33:22;13.43;;;6.22;;
30378;SDS011;17168;49.164;9.060;2023-04-16T02:35:56;13.90;;;7.00;;
30378;SDS011;17168;49.164;9.060;2023-04-16T02:38:31;14.90;;;7.68;;
30378;SDS011;17168;49.164;9.060;2023-04-16T02:41:03;11.63;;;6.72;;
30378;SDS011;17168;49.164;9.060;2023-04-16T02:43:36;12.40;;;6.18;;
30378;SDS011;17168;49.164;9.060;2023-04-16T02:46:08;12.30;;;7.10;;
30378;SDS011;17168;49.164;9.060;2023-04-16T02:48:40;14.55;;;7.57;;
30378;SDS011;17168;49.164;9.060;2023-04-16T02:51:12;15.15;;;8.35;;
30378;SDS011;17168;49.164;9.060;2023-04-16T02:53:47;14.55;;;8.20;;
30378;SDS011;17168;49.164;9.060;2023-04-16T02:56:19;12.55;;;7.05;;
30378;SDS011;17168;49.164;9.060;2023-04-16T02:58:51;14.07;;;8.20;;
30378;SDS011;17168;49.164;9.060;2023-04-16T03:01:23;15.00;;;8.48;;
30378;SDS011;17168;49.164;9.060;2023-04-16T03:03:55;15.25;;;7.63;;
30378;SDS011;17168;49.164;9.060;2023-04-16T03:06:28;14.30;;;8.20;;
30378;SDS011;17168;49.164;9.060;2023-04-16T03:09:02;12.82;;;7.53;;
30378;SDS011;17168;49.164;9.060;2023-04-16T03:11:34;15.40;;;7.82;;
30378;SDS011;17168;49.164;9.060;2023-04-16T03:14:06;12.90;;;6.30;;
30378;SDS011;17168;49.164;9.060;2023-04-16T03:16:38;15.02;;;7.35;;
30378;SDS011;17168;49.164;9.060;2023-04-16T03:19:10;15.88;;;7.85;;
30378;SDS011;17168;49.164;9.060;2023-04-16T03:21:42;16.38;;;8.40;;
30378;SDS011;17168;49.164;9.060;2023-04-16T03:24:17;18.02;;;8.13;;
30378;SDS011;17168;49.164;9.060;2023-04-16T03:26:49;17.00;;;8.35;;
30378;SDS011;17168;49.164;9.060;2023-04-16T03:29:21;14.65;;;7.38;;
30378;SDS011;17168;49.164;9.060;2023-04-16T03:31:53;13.90;;;7.65;;
30378;SDS011;17168;49.164;9.060;2023-04-16T03:34:26;13.63;;;6.93;;
30378;SDS011;17168;49.164;9.060;2023-04-16T03:36:58;14.38;;;7.43;;
30378;SDS011;17168;49.164;9.060;2023-04-16T03:39:33;14.65;;;7.65;;
30378;SDS011;17168;49.164;9.060;2023-04-16T03:42:05;16.27;;;7.25;;
30378;SDS011;17168;49.164;9.060;2023-04-16T03:44:37;13.18;;;7.00;;
30378;SDS011;17168;49.164;9.060;2023-04-16T03:47:09;14.27;;;6.88;;
30378;SDS011;17168;49.164;9.060;2023-04-16T03:49:41;13.38;;;6.35;;
30378;SDS011;17168;49.164;9.060;2023-04-16T03:52:13;14.77;;;6.72;;
30378;SDS011;17168;49.164;9.060;2023-04-16T03:54:48;11.43;;;6.22;;
30378;SDS011;17168;49.164;9.060;2023-04-16T03:57:21;12.27;;;6.15;;
30378;SDS011;17168;49.164;9.060;2023-04-16T03:59:53;14.60;;;7.10;;
30378;SDS011;17168;49.164;9.060;2023-04-16T04:02:25;11.35;;;6.00;;
30378;SDS011;17168;49.164;9.060;2023-04-16T04:04:57;12.50;;;6.40;;
30378;SDS011;17168;49.164;9.060;2023-04-16T04:07:29;12.70;;;6.38;;
30378;SDS011;17168;49.164;9.060;2023-04-16T04:10:04;13.50;;;7.03;;
30378;SDS011;17168;49.164;9.060;2023-04-16T04:12:38;11.30;;;6.05;;
30378;SDS011;17168;49.164;9.060;2023-04-16T04:15:10;13.38;;;6.97;;
30378;SDS011;17168;49.164;9.060;2023-04-16T04:17:42;14.20;;;7.30;;
30378;SDS011;17168;49.164;9.060;2023-04-16T04:20:15;12.38;;;6.40;;
30378;SDS011;17168;49.164;9.060;2023-04-16T04:22:47;14.15;;;7.03;;
30378;SDS011;17168;49.164;9.060;2023-04-16T04:25:22;14.15;;;7.45;;
30378;SDS011;17168;49.164;9.060;2023-04-16T04:27:55;17.40;;;6.88;;
30378;SDS011;17168;49.164;9.060;2023-04-16T04:30:27;15.75;;;8.23;;
30378;SDS011;17168;49.164;9.060;2023-04-16T04:32:59;15.00;;;7.57;;
30378;SDS011;17168;49.164;9.060;2023-04-16T04:35:31;14.52;;;7.43;;
30378;SDS011;17168;49.164;9.060;2023-04-16T04:38:03;12.70;;;6.80;;
30378;SDS011;17168;49.164;9.060;2023-04-16T04:40:38;16.63;;;8.30;;
30378;SDS011;17168;49.164;9.060;2023-04-16T04:43:10;15.68;;;8.27;;
30378;SDS011;17168;49.164;9.060;2023-04-16T04:45:43;21.55;;;10.00;;
30378;SDS011;17168;49.164;9.060;2023-04-16T04:48:18;18.25;;;8.88;;
30378;SDS011;17168;49.164;9.060;2023-04-16T04:53:28;18.05;;;8.20;;
30378;SDS011;17168;49.164;9.060;2023-04-16T04:56:03;16.77;;;7.93;;
30378;SDS011;17168;49.164;9.060;2023-04-16T04:58:43;16.58;;;7.63;;
30378;SDS011;17168;49.164;9.060;2023-04-16T05:01:15;15.70;;;8.65;;
30378;SDS011;17168;49.164;9.060;2023-04-16T05:03:47;18.08;;;8.77;;
30378;SDS011;17168;49.164;9.060;2023-04-16T05:06:19;15.25;;;8.23;;
30378;SDS011;17168;49.164;9.060;2023-04-16T05:08:51;13.00;;;6.25;;
30378;SDS011;17168;49.164;9.060;2023-04-16T05:11:26;15.93;;;8.48;;
30378;SDS011;17168;49.164;9.060;2023-04-16T05:13:59;15.23;;;8.35;;
30378;SDS011;17168;49.164;9.060;2023-04-16T05:16:34;16.35;;;7.93;;
30378;SDS011;17168;49.164;9.060;2023-04-16T05:19:07;17.23;;;8.95;;
30378;SDS011;17168;49.164;9.060;2023-04-16T05:21:39;19.02;;;9.68;;
30378;SDS011;17168;49.164;9.060;2023-04-16T05:24:11;17.88;;;8.48;;
30378;SDS011;17168;49.164;9.060;2023-04-16T05:26:47;14.15;;;6.45;;
30378;SDS011;17168;49.164;9.060;2023-04-16T05:29:20;17.27;;;8.90;;
30378;SDS011;17168;49.164;9.060;2023-04-16T05:31:52;19.25;;;8.35;;
30378;SDS011;17168;49.164;9.060;2023-04-16T05:34:24;13.40;;;6.65;;
30378;SDS011;17168;49.164;9.060;2023-04-16T05:36:56;17.75;;;8.38;;
30378;SDS011;17168;49.164;9.060;2023-04-16T05:39:28;18.10;;;9.65;;
30378;SDS011;17168;49.164;9.060;2023-04-16T05:42:03;19.40;;;9.00;;
30378;SDS011;17168;49.164;9.060;2023-04-16T05:44:36;17.70;;;9.15;;
30378;SDS011;17168;49.164;9.060;2023-04-16T05:47:08;18.45;;;8.80;;
30378;SDS011;17168;49.164;9.060;2023-04-16T05:49:40;18.23;;;9.52;;
30378;SDS011;17168;49.164;9.060;2023-04-16T05:52:12;16.35;;;9.32;;
30378;SDS011;17168;49.164;9.060;2023-04-16T05:54:45;18.25;;;9.13;;
30378;SDS011;17168;49.164;9.060;2023-04-16T05:57:19;18.58;;;8.98;;
30378;SDS011;17168;49.164;9.060;2023-04-16T05:59:51;18.85;;;9.20;;
30378;SDS011;17168;49.164;9.060;2023-04-16T06:02:24;18.10;;;8.70;;
30378;SDS011;17168;49.164;9.060;2023-04-16T06:04:56;16.33;;;9.00;;
30378;SDS011;17168;49.164;9.060;2023-04-16T06:07:28;20.27;;;10.40;;
30378;SDS011;17168;49.164;9.060;2023-04-16T06:10:00;19.13;;;10.60;;
30378;SDS011;17168;49.164;9.060;2023-04-16T06:12:35;17.08;;;7.88;;
30378;SDS011;17168;49.164;9.060;2023-04-16T06:15:08;17.73;;;9.73;;
30378;SDS011;17168;49.164;9.060;2023-04-16T06:17:41;18.33;;;9.38;;
30378;SDS011;17168;49.164;9.060;2023-04-16T06:20:13;18.75;;;9.88;;
30378;SDS011;17168;49.164;9.060;2023-04-16T06:22:45;15.93;;;8.10;;
30378;SDS011;17168;49.164;9.060;2023-04-16T06:25:17;15.80;;;7.50;;
30378;SDS011;17168;49.164;9.060;2023-04-16T06:27:52;18.80;;;8.88;;
30378;SDS011;17168;49.164;9.060;2023-04-16T06:30:24;19.55;;;9.38;;
30378;SDS011;17168;49.164;9.060;2023-04-16T06:32:56;18.85;;;9.02;;
30378;SDS011;17168;49.164;9.060;2023-04-16T06:35:28;19.50;;;9.93;;
30378;SDS011;17168;49.164;9.060;2023-04-16T06:38:01;16.10;;;7.93;;
30378;SDS011;17168;49.164;9.060;2023-04-16T06:40:33;18.52;;;9.55;;
30378;SDS011;17168;49.164;9.060;2023-04-16T06:43:10;17.48;;;8.10;;
30378;SDS011;17168;49.164;9.060;2023-04-16T06:45:42;16.40;;;8.20;;
30378;SDS011;17168;49.164;9.060;2023-04-16T06:48:14;16.45;;;8.90;;
30378;SDS011;17168;49.164;9.060;2023-04-16T06:50:46;19.83;;;9.25;;
30378;SDS011;17168;49.164;9.060;2023-04-16T06:53:18;16.45;;;8.00;;
30378;SDS011;17168;49.164;9.060;2023-04-16T06:55:50;15.57;;;8.63;;
30378;SDS011;17168;49.164;9.060;2023-04-16T06:58:25;14.80;;;8.65;;
30378;SDS011;17168;49.164;9.060;2023-04-16T07:00:57;12.60;;;7.07;;
30378;SDS011;17168;49.164;9.060;2023-04-16T07:03:30;16.05;;;7.88;;
30378;SDS011;17168;49.164;9.060;2023-04-16T07:06:02;14.75;;;7.65;;
30378;SDS011;17168;49.164;9.060;2023-04-16T07:08:34;20.75;;;8.68;;
30378;SDS011;17168;49.164;9.060;2023-04-16T07:11:06;14.80;;;7.68;;
30378;SDS011;17168;49.164;9.060;2023-04-16T07:13:41;16.35;;;8.15;;
30378;SDS011;17168;49.164;9.060;2023-04-16T07:16:13;16.83;;;7.65;;
30378;SDS011;17168;49.164;9.060;2023-04-16T07:18:45;16.88;;;7.65;;
30378;SDS011;17168;49.164;9.060;2023-04-16T07:21:17;14.15;;;7.00;;
30378;SDS011;17168;49.164;9.060;2023-04-16T07:23:49;15.63;;;8.15;;
30378;SDS011;17168;49.164;9.060;2023-04-16T07:26:21;13.73;;;7.43;;
30378;SDS011;17168;49.164;9.060;2023-04-16T07:28:56;13.05;;;7.10;;
30378;SDS011;17168;49.164;9.060;2023-04-16T07:31:28;15.50;;;7.50;;
30378;SDS011;17168;49.164;9.060;2023-04-16T07:34:00;17.27;;;8.65;;
30378;SDS011;17168;49.164;9.060;2023-04-16T07:36:32;17.80;;;8.32;;
30378;SDS011;17168;49.164;9.060;2023-04-16T07:39:04;11.95;;;6.30;;
30378;SDS011;17168;49.164;9.060;2023-04-16T07:41:36;17.90;;;7.78;;
30378;SDS011;17168;49.164;9.060;2023-04-16T07:44:12;15.70;;;6.93;;
30378;SDS011;17168;49.164;9.060;2023-04-16T07:46:44;14.13;;;7.65;;
30378;SDS011;17168;49.164;9.060;2023-04-16T07:49:18;15.75;;;7.75;;
30378;SDS011;17168;49.164;9.060;2023-04-16T07:51:50;12.52;;;6.90;;
30378;SDS011;17168;49.164;9.060;2023-04-16T07:54:22;14.55;;;7.53;;
30378;SDS011;17168;49.164;9.060;2023-04-16T07:56:54;13.55;;;6.82;;
30378;SDS011;17168;49.164;9.060;2023-04-16T07:59:29;11.70;;;6.07;;
30378;SDS011;17168;49.164;9.060;2023-04-16T08:02:01;14.77;;;7.63;;
30378;SDS011;17168;49.164;9.060;2023-04-16T08:04:33;18.63;;;8.85;;
30378;SDS011;17168;49.164;9.060;2023-04-16T08:07:05;16.40;;;8.45;;
30378;SDS011;17168;49.164;9.060;2023-04-16T08:09:45;14.45;;;8.38;;
30378;SDS011;17168;49.164;9.060;2023-04-16T08:12:19;13.40;;;7.30;;
30378;SDS011;17168;49.164;9.060;2023-04-16T08:14:55;14.70;;;8.13;;
30378;SDS011;17168;49.164;9.060;2023-04-16T08:17:28;16.63;;;9.07;;
30378;SDS011;17168;49.164;9.060;2023-04-16T08:20:00;13.68;;;7.18;;
30378;SDS011;17168;49.164;9.060;2023-04-16T08:22:32;13.90;;;7.88;;
30378;SDS011;17168;49.164;9.060;2023-04-16T08:25:05;14.10;;;7.60;;
30378;SDS011;17168;49.164;9.060;2023-04-16T08:27:38;14.45;;;8.20;;
30378;SDS011;17168;49.164;9.060;2023-04-16T08:30:13;15.57;;;8.40;;
30378;SDS011;17168;49.164;9.060;2023-04-16T08:32:46;14.38;;;7.65;;
30378;SDS011;17168;49.164;9.060;2023-04-16T08:35:20;15.00;;;8.82;;
30378;SDS011;17168;49.164;9.060;2023-04-16T08:37:53;15.50;;;8.73;;
30378;SDS011;17168;49.164;9.060;2023-04-16T08:40:25;16.67;;;8.25;;
30378;SDS011;17168;49.164;9.060;2023-04-16T08:42:59;15.40;;;8.32;;
30378;SDS011;17168;49.164;9.060;2023-04-16T08:45:38;15.70;;;8.25;;
30378;SDS011;17168;49.164;9.060;2023-04-16T08:48:13;14.23;;;7.55;;
30378;SDS011;17168;49.164;9.060;2023-04-16T08:50:46;15.10;;;7.70;;
30378;SDS011;17168;49.164;9.060;2023-04-16T08:53:27;15.98;;;8.00;;
30378;SDS011;17168;49.164;9.060;2023-04-16T08:58:35;12.43;;;6.53;;
30378;SDS011;17168;49.164;9.060;2023-04-16T09:01:11;16.15;;;8.90;;
30378;SDS011;17168;49.164;9.060;2023-04-16T09:03:45;15.90;;;8.25;;
30378;SDS011;17168;49.164;9.060;2023-04-16T09:06:18;19.80;;;8.52;;
30378;SDS011;17168;49.164;9.060;2023-04-16T09:08:51;15.20;;;7.78;;
30378;SDS011;17168;49.164;9.060;2023-04-16T09:11:24;15.07;;;7.85;;
30378;SDS011;17168;49.164;9.060;2023-04-16T09:13:56;18.00;;;8.10;;
30378;SDS011;17168;49.164;9.060;2023-04-16T09:16:32;18.13;;;8.07;;
30378;SDS011;17168;49.164;9.060;2023-04-16T09:19:05;18.25;;;8.80;;
30378;SDS011;17168;49.164;9.060;2023-04-16T09:21:37;19.30;;;9.52;;
30378;SDS011;17168;49.164;9.060;2023-04-16T09:24:11;18.13;;;9.93;;
30378;SDS011;17168;49.164;9.060;2023-04-16T09:26:43;18.00;;;9.07;;
30378;SDS011;17168;49.164;9.060;2023-04-16T09:29:25;18.77;;;9.20;;
30378;SDS011;17168;49.164;9.060;2023-04-16T09:32:08;16.90;;;8.13;;
30378;SDS011;17168;49.164;9.060;2023-04-16T09:34:54;16.30;;;7.55;;
30378;SDS011;17168;49.164;9.060;2023-04-16T09:37:28;16.45;;;8.52;;
30378;SDS011;17168;49.164;9.060;2023-04-16T09:40:01;18.88;;;8.55;;
30378;SDS011;17168;49.164;9.060;2023-04-16T09:42:35;17.50;;;9.13;;
30378;SDS011;17168;49.164;9.060;2023-04-16T09:45:08;16.23;;;8.52;;
30378;SDS011;17168;49.164;9.060;2023-04-16T09:47:43;20.35;;;9.75;;
30378;SDS011;17168;49.164;9.060;2023-04-16T09:50:17;18.33;;;9.55;;
30378;SDS011;17168;49.164;9.060;2023-04-16T09:52:50;21.45;;;9.65;;
30378;SDS011;17168;49.164;9.060;2023-04-16T09:55:22;18.73;;;9.60;;
30378;SDS011;17168;49.164;9.060;2023-04-16T09:57:58;18.08;;;8.80;;
30378;SDS011;17168;49.164;9.060;2023-04-16T10:00:31;18.75;;;9.25;;
30378;SDS011;17168;49.164;9.060;2023-04-16T10:03:06;18.15;;;8.80;;
30378;SDS011;17168;49.164;9.060;2023-04-16T10:05:39;17.60;;;8.82;;
30378;SDS011;17168;49.164;9.060;2023-04-16T10:08:12;18.58;;;9.02;;
30378;SDS011;17168;49.164;9.060;2023-04-16T10:10:44;15.55;;;7.68;;
30378;SDS011;17168;49.164;9.060;2023-04-16T10:13:16;17.83;;;9.05;;
30378;SDS011;17168;49.164;9.060;2023-04-16T10:15:49;17.98;;;8.77;;
30378;SDS011;17168;49.164;9.060;2023-04-16T10:18:24;17.98;;;9.88;;
30378;SDS011;17168;49.164;9.060;2023-04-16T10:20:57;16.67;;;7.93;;
30378;SDS011;17168;49.164;9.060;2023-04-16T10:23:30;16.80;;;8.20;;
30378;SDS011;17168;49.164;9.060;2023-04-16T10:26:03;15.25;;;8.27;;
30378;SDS011;17168;49.164;9.060;2023-04-16T10:28:36;15.63;;;7.10;;
30378;SDS011;17168;49.164;9.060;2023-04-16T10:31:08;13.63;;;6.82;;
30378;SDS011;17168;49.164;9.060;2023-04-16T10:33:43;14.30;;;7.63;;
30378;SDS011;17168;49.164;9.060;2023-04-16T10:36:21;17.48;;;8.07;;
30378;SDS011;17168;49.164;9.060;2023-04-16T10:38:56;12.15;;;6.25;;
30378;SDS011;17168;49.164;9.060;2023-04-16T10:41:31;15.30;;;7.13;;
30378;SDS011;17168;49.164;9.060;2023-04-16T10:44:04;12.38;;;5.75;;
30378;SDS011;17168;49.164;9.060;2023-04-16T10:46:40;10.15;;;4.97;;
30378;SDS011;17168;49.164;9.060;2023-04-16T10:49:18;11.38;;;5.93;;
30378;SDS011;17168;49.164;9.060;2023-04-16T10:51:53;11.45;;;5.88;;
30378;SDS011;17168;49.164;9.060;2023-04-16T10:54:27;9.85;;;5.47;;
30378;SDS011;17168;49.164;9.060;2023-04-16T10:57:02;12.82;;;5.90;;
30378;SDS011;17168;49.164;9.060;2023-04-16T10:59:35;10.48;;;5.50;;
30378;SDS011;17168;49.164;9.060;2023-04-16T11:02:12;11.02;;;5.00;;
30378;SDS011;17168;49.164;9.060;2023-04-16T11:04:47;9.77;;;4.82;;
30378;SDS011;17168;49.164;9.060;2023-04-16T11:07:22;9.93;;;5.35;;
30378;SDS011;17168;49.164;9.060;2023-04-16T11:10:04;12.50;;;5.70;;
30378;SDS011;17168;49.164;9.060;2023-04-16T11:12:38;7.55;;;4.30;;
30378;SDS011;17168;49.164;9.060;2023-04-16T11:15:11;9.20;;;5.05;;
30378;SDS011;17168;49.164;9.060;2023-04-16T11:17:45;8.98;;;4.65;;
30378;SDS011;17168;49.164;9.060;2023-04-16T11:20:21;9.55;;;4.28;;
30378;SDS011;17168;49.164;9.060;2023-04-16T11:22:54;10.05;;;4.85;;
30378;SDS011;17168;49.164;9.060;2023-04-16T11:25:28;10.35;;;4.80;;
30378;SDS011;17168;49.164;9.060;2023-04-16T11:28:01;9.82;;;4.43;;
30378;SDS011;17168;49.164;9.060;2023-04-16T11:30:34;11.23;;;4.95;;
30378;SDS011;17168;49.164;9.060;2023-04-16T11:33:07;8.43;;;4.05;;
30378;SDS011;17168;49.164;9.060;2023-04-16T11:35:44;8.38;;;4.50;;
30378;SDS011;17168;49.164;9.060;2023-04-16T11:38:35;7.80;;;4.45;;
30378;SDS011;17168;49.164;9.060;2023-04-16T11:41:08;6.90;;;3.92;;
30378;SDS011;17168;49.164;9.060;2023-04-16T11:43:41;8.25;;;3.90;;
30378;SDS011;17168;49.164;9.060;2023-04-16T11:46:13;10.23;;;4.05;;
30378;SDS011;17168;49.164;9.060;2023-04-16T11:48:57;7.32;;;3.95;;
30378;SDS011;17168;49.164;9.060;2023-04-16T11:51:32;7.72;;;4.10;;
30378;SDS011;17168;49.164;9.060;2023-04-16T11:54:17;7.25;;;4.03;;
30378;SDS011;17168;49.164;9.060;2023-04-16T11:56:50;6.60;;;3.80;;
30378;SDS011;17168;49.164;9.060;2023-04-16T11:59:23;7.72;;;3.95;;
30378;SDS011;17168;49.164;9.060;2023-04-16T12:01:56;7.70;;;4.07;;
30378;SDS011;17168;49.164;9.060;2023-04-16T12:04:28;8.25;;;4.32;;
30378;SDS011;17168;49.164;9.060;2023-04-16T12:07:07;7.30;;;3.53;;
30378;SDS011;17168;49.164;9.060;2023-04-16T12:09:40;9.40;;;4.07;;
30378;SDS011;17168;49.164;9.060;2023-04-16T12:12:25;7.00;;;3.75;;
30378;SDS011;17168;49.164;9.060;2023-04-16T12:15:00;7.93;;;3.95;;
30378;SDS011;17168;49.164;9.060;2023-04-16T12:17:34;7.90;;;4.25;;
30378;SDS011;17168;49.164;9.060;2023-04-16T12:20:09;9.48;;;5.25;;
30378;SDS011;17168;49.164;9.060;2023-04-16T12:22:45;8.48;;;5.30;;
30378;SDS011;17168;49.164;9.060;2023-04-16T12:25:18;8.25;;;4.70;;
30378;SDS011;17168;49.164;9.060;2023-04-16T12:27:51;7.90;;;4.85;;
30378;SDS011;17168;49.164;9.060;2023-04-16T12:30:26;8.27;;;4.35;;
30378;SDS011;17168;49.164;9.060;2023-04-16T12:33:14;8.70;;;5.18;;
30378;SDS011;17168;49.164;9.060;2023-04-16T12:35:47;8.55;;;4.65;;
30378;SDS011;17168;49.164;9.060;2023-04-16T12:38:22;10.02;;;5.45;;
30378;SDS011;17168;49.164;9.060;2023-04-16T12:40:56;8.95;;;4.38;;
30378;SDS011;17168;49.164;9.060;2023-04-16T12:43:28;8.30;;;4.50;;
30378;SDS011;17168;49.164;9.060;2023-04-16T12:46:00;9.02;;;5.03;;
30378;SDS011;17168;49.164;9.060;2023-04-16T12:48:34;10.13;;;4.60;;
30378;SDS011;17168;49.164;9.060;2023-04-16T12:51:07;8.82;;;5.22;;
30378;SDS011;17168;49.164;9.060;2023-04-16T12:53:41;9.40;;;5.22;;
30378;SDS011;17168;49.164;9.060;2023-04-16T12:56:13;11.48;;;5.93;;
30378;SDS011;17168;49.164;9.060;2023-04-16T12:58:45;8.57;;;4.22;;
30378;SDS011;17168;49.164;9.060;2023-04-16T13:01:21;10.73;;;5.03;;
30378;SDS011;17168;49.164;9.060;2023-04-16T13:03:54;11.15;;;5.70;;
30378;SDS011;17168;49.164;9.060;2023-04-16T13:06:26;10.30;;;5.45;;
30378;SDS011;17168;49.164;9.060;2023-04-16T13:09:01;9.50;;;6.07;;
30378;SDS011;17168;49.164;9.060;2023-04-16T13:11:33;9.25;;;5.25;;
30378;SDS011;17168;49.164;9.060;2023-04-16T13:14:05;9.98;;;5.97;;
30378;SDS011;17168;49.164;9.060;2023-04-16T13:16:38;10.73;;;6.15;;
30378;SDS011;17168;49.164;9.060;2023-04-16T13:19:10;10.13;;;5.55;;
30378;SDS011;17168;49.164;9.060;2023-04-16T13:21:43;11.82;;;6.63;;
30378;SDS011;17168;49.164;9.060;2023-04-16T13:24:17;11.75;;;6.38;;
30378;SDS011;17168;49.164;9.060;2023-04-16T13:26:50;11.25;;;6.25;;
30378;SDS011;17168;49.164;9.060;2023-04-16T13:29:26;10.65;;;6.38;;
30378;SDS011;17168;49.164;9.060;2023-04-16T13:31:59;10.38;;;6.20;;
30378;SDS011;17168;49.164;9.060;2023-04-16T13:34:31;14.90;;;6.72;;
30378;SDS011;17168;49.164;9.060;2023-04-16T13:37:03;11.30;;;6.13;;
30378;SDS011;17168;49.164;9.060;2023-04-16T13:39:38;11.55;;;6.80;;
30378;SDS011;17168;49.164;9.060;2023-04-16T13:42:10;12.38;;;6.72;;
30378;SDS011;17168;49.164;9.060;2023-04-16T13:44:42;12.43;;;6.40;;
30378;SDS011;17168;49.164;9.060;2023-04-16T13:47:14;12.52;;;6.88;;
30378;SDS011;17168;49.164;9.060;2023-04-16T13:49:47;13.55;;;7.80;;
30378;SDS011;17168;49.164;9.060;2023-04-16T13:52:19;14.48;;;7.85;;
30378;SDS011;17168;49.164;9.060;2023-04-16T13:54:54;14.57;;;8.18;;
30378;SDS011;17168;49.164;9.060;2023-04-16T13:57:27;12.48;;;6.72;;
30378;SDS011;17168;49.164;9.060;2023-04-16T14:00:00;12.90;;;6.90;;
30378;SDS011;17168;49.164;9.060;2023-04-16T14:02:33;12.77;;;7.40;;
30378;SDS011;17168;49.164;9.060;2023-04-16T14:05:06;11.75;;;6.93;;
30378;SDS011;17168;49.164;9.060;2023-04-16T14:07:38;13.55;;;7.38;;
30378;SDS011;17168;49.164;9.060;2023-04-16T14:10:13;13.52;;;6.97;;
30378;SDS011;17168;49.164;9.060;2023-04-16T14:12:45;12.88;;;7.32;;
30378;SDS011;17168;49.164;9.060;2023-04-16T14:15:18;11.57;;;7.05;;
30378;SDS011;17168;49.164;9.060;2023-04-16T14:17:51;15.98;;;7.82;;
30378;SDS011;17168;49.164;9.060;2023-04-16T14:20:24;14.95;;;8.57;;
30378;SDS011;17168;49.164;9.060;2023-04-16T14:22:57;14.52;;;7.93;;
30378;SDS011;17168;49.164;9.060;2023-04-16T14:25:33;14.60;;;8.02;;
30378;SDS011;17168;49.164;9.060;2023-04-16T14:28:07;17.08;;;9.15;;
30378;SDS011;17168;49.164;9.060;2023-04-16T14:30:40;16.83;;;9.43;;
30378;SDS011;17168;49.164;9.060;2023-04-16T14:33:14;15.88;;;9.00;;
30378;SDS011;17168;49.164;9.060;2023-04-16T14:35:46;15.93;;;8.57;;
30378;SDS011;17168;49.164;9.060;2023-04-16T14:38:20;16.60;;;9.02;;
30378;SDS011;17168;49.164;9.060;2023-04-16T14:40:55;17.33;;;9.98;;
30378;SDS011;17168;49.164;9.060;2023-04-16T14:43:27;16.98;;;9.38;;
30378;SDS011;17168;49.164;9.060;2023-04-16T14:45:59;19.65;;;9.73;;
30378;SDS011;17168;49.164;9.060;2023-04-16T14:49:12;17.83;;;9.27;;
30378;SDS011;17168;49.164;9.060;2023-04-16T14:51:51;20.63;;;10.38;;
30378;SDS011;17168;49.164;9.060;2023-04-16T14:54:23;20.35;;;9.90;;
30378;SDS011;17168;49.164;9.060;2023-04-16T14:56:57;18.85;;;10.45;;
30378;SDS011;17168;49.164;9.060;2023-04-16T14:59:29;18.98;;;9.45;;
30378;SDS011;17168;49.164;9.060;2023-04-16T15:02:02;20.58;;;10.60;;
30378;SDS011;17168;49.164;9.060;2023-04-16T15:04:35;18.58;;;10.23;;
30378;SDS011;17168;49.164;9.060;2023-04-16T15:07:07;18.88;;;9.95;;
30378;SDS011;17168;49.164;9.060;2023-04-16T15:09:39;19.63;;;10.32;;
30378;SDS011;17168;49.164;9.060;2023-04-16T15:12:14;19.63;;;11.18;;
30378;SDS011;17168;49.164;9.060;2023-04-16T15:14:49;18.92;;;10.00;;
30378;SDS011;17168;49.164;9.060;2023-04-16T15:17:21;22.42;;;11.05;;
30378;SDS011;17168;49.164;9.060;2023-04-16T15:19:53;16.42;;;9.23;;